sensor_id;sensor_type;location;lat;lon;timestamp;noise_LAeq;noise_LA_min;noise_LA_max;noise_LA01;noise_LA95
43385;Laerm;28988;48.042;7.584;2023-07-29T00:01:46;84.26;-22.63;94.57;;
43385;Laerm;28988;48.042;7.584;2023-07-29T00:04:11;84.26;-28.29;94.99;;
43385;Laerm;28988;48.042;7.584;2023-07-29T00:06:36;84.27;-34.16;95.38;;
43385;Laerm;28988;48.042;7.584;2023-07-29T00:09:02;84.29;-33.10;95.48;;
43385;Laerm;28988;48.042;7.584;2023-07-29T00:11:27;84.26;-27.99;95.34;;
43385;Laerm;28988;48.042;7.584;2023-07-29T00:13:52;84.28;-31.18;94.94;;
43385;Laerm;28988;48.042;7.584;2023-07-29T00:16:18;84.28;-57.68;95.07;;
43385;Laerm;28988;48.042;7.584;2023-07-29T00:18:46;84.29;-23.73;94.95;;
43385;Laerm;28988;48.042;7.584;2023-07-29T00:21:11;84.27;-42.96;95.05;;
43385;Laerm;28988;48.042;7.584;2023-07-29T00:23:36;84.27;-23.73;95.16;;
43385;Laerm;28988;48.042;7.584;2023-07-29T00:26:01;84.30;-23.73;95.26;;
43385;Laerm;28988;48.042;7.584;2023-07-29T00:28:27;84.29;-33.10;94.78;;
43385;Laerm;28988;48.042;7.584;2023-07-29T00:30:52;84.27;-28.29;94.43;;
43385;Laerm;28988;48.042;7.584;2023-07-29T00:33:17;84.28;-23.73;95.24;;
43385;Laerm;28988;48.042;7.584;2023-07-29T00:35:42;84.28;-22.63;95.13;;
43385;Laerm;28988;48.042;7.584;2023-07-29T00:38:08;84.29;-31.18;94.70;;
43385;Laerm;28988;48.042;7.584;2023-07-29T00:40:35;84.28;-50.28;95.22;;
43385;Laerm;28988;48.042;7.584;2023-07-29T00:43:00;84.28;-30.26;95.49;;
43385;Laerm;28988;48.042;7.584;2023-07-29T00:45:25;84.28;-57.68;95.47;;
43385;Laerm;28988;48.042;7.584;2023-07-29T00:47:52;84.28;-57.68;94.99;;
43385;Laerm;28988;48.042;7.584;2023-07-29T00:50:17;84.29;-57.68;95.22;;
43385;Laerm;28988;48.042;7.584;2023-07-29T00:52:42;84.30;-23.73;94.85;;
43385;Laerm;28988;48.042;7.584;2023-07-29T00:55:07;84.28;-23.73;94.84;;
43385;Laerm;28988;48.042;7.584;2023-07-29T00:57:33;84.28;-57.68;95.11;;
43385;Laerm;28988;48.042;7.584;2023-07-29T00:59:59;84.28;-57.68;94.41;;
43385;Laerm;28988;48.042;7.584;2023-07-29T01:02:25;84.29;-33.10;95.56;;
43385;Laerm;28988;48.042;7.584;2023-07-29T01:04:52;84.29;-57.68;94.67;;
43385;Laerm;28988;48.042;7.584;2023-07-29T01:12:36;84.29;-47.83;95.40;;
43385;Laerm;28988;48.042;7.584;2023-07-29T01:15:11;84.26;-23.73;95.58;;
43385;Laerm;28988;48.042;7.584;2023-07-29T01:17:43;84.28;-57.68;95.01;;
43385;Laerm;28988;48.042;7.584;2023-07-29T01:20:19;84.30;-28.92;95.63;;
43385;Laerm;28988;48.042;7.584;2023-07-29T01:22:45;84.28;-23.73;95.83;;
43385;Laerm;28988;48.042;7.584;2023-07-29T01:25:12;84.28;-23.73;94.79;;
43385;Laerm;28988;48.042;7.584;2023-07-29T01:27:37;84.28;-57.68;94.49;;
43385;Laerm;28988;48.042;7.584;2023-07-29T01:30:02;84.29;-20.54;95.29;;
43385;Laerm;28988;48.042;7.584;2023-07-29T01:32:41;84.29;-23.73;94.84;;
43385;Laerm;28988;48.042;7.584;2023-07-29T01:35:11;84.27;-20.54;94.95;;
43385;Laerm;28988;48.042;7.584;2023-07-29T01:37:39;84.27;-26.51;94.96;;
43385;Laerm;28988;48.042;7.584;2023-07-29T01:40:06;84.29;-23.73;96.04;;
43385;Laerm;28988;48.042;7.584;2023-07-29T01:42:33;84.27;-24.05;95.38;;
43385;Laerm;28988;48.042;7.584;2023-07-29T01:44:59;84.26;-57.68;94.93;;
43385;Laerm;28988;48.042;7.584;2023-07-29T01:47:24;84.26;-23.73;94.93;;
43385;Laerm;28988;48.042;7.584;2023-07-29T01:49:49;84.26;-57.68;94.42;;
43385;Laerm;28988;48.042;7.584;2023-07-29T01:52:15;84.27;-36.04;94.97;;
43385;Laerm;28988;48.042;7.584;2023-07-29T01:54:40;84.24;-23.73;94.83;;
43385;Laerm;28988;48.042;7.584;2023-07-29T01:57:05;84.28;-24.06;95.15;;
43385;Laerm;28988;48.042;7.584;2023-07-29T01:59:30;84.28;-57.68;94.56;;
43385;Laerm;28988;48.042;7.584;2023-07-29T02:01:55;84.27;-33.99;95.07;;
43385;Laerm;28988;48.042;7.584;2023-07-29T02:04:20;84.28;-57.68;95.18;;
43385;Laerm;28988;48.042;7.584;2023-07-29T02:06:46;84.28;-28.29;95.37;;
43385;Laerm;28988;48.042;7.584;2023-07-29T02:09:11;84.26;-23.73;95.55;;
43385;Laerm;28988;48.042;7.584;2023-07-29T02:11:36;84.27;-57.68;95.66;;
43385;Laerm;28988;48.042;7.584;2023-07-29T02:14:01;84.28;-31.18;94.64;;
43385;Laerm;28988;48.042;7.584;2023-07-29T02:16:26;84.28;-36.28;95.19;;
43385;Laerm;28988;48.042;7.584;2023-07-29T02:18:52;84.28;-23.73;94.91;;
43385;Laerm;28988;48.042;7.584;2023-07-29T02:21:17;84.27;-22.86;94.91;;
43385;Laerm;28988;48.042;7.584;2023-07-29T02:23:42;84.27;-57.68;94.39;;
43385;Laerm;28988;48.042;7.584;2023-07-29T02:26:07;84.26;-23.73;95.26;;
43385;Laerm;28988;48.042;7.584;2023-07-29T02:28:33;84.28;-33.10;95.19;;
43385;Laerm;28988;48.042;7.584;2023-07-29T02:33:44;84.24;-28.29;94.85;;
43385;Laerm;28988;48.042;7.584;2023-07-29T02:36:10;84.27;-23.73;94.93;;
43385;Laerm;28988;48.042;7.584;2023-07-29T02:38:36;84.28;-28.29;95.14;;
43385;Laerm;28988;48.042;7.584;2023-07-29T02:41:01;84.28;-23.73;94.81;;
43385;Laerm;28988;48.042;7.584;2023-07-29T02:43:26;84.26;-57.68;95.05;;
43385;Laerm;28988;48.042;7.584;2023-07-29T02:45:51;84.27;-57.68;95.05;;
43385;Laerm;28988;48.042;7.584;2023-07-29T02:48:16;84.29;-23.73;95.28;;
43385;Laerm;28988;48.042;7.584;2023-07-29T02:50:41;84.28;-46.95;95.27;;
43385;Laerm;28988;48.042;7.584;2023-07-29T02:53:07;84.27;-41.54;94.93;;
43385;Laerm;28988;48.042;7.584;2023-07-29T02:55:32;84.27;-28.29;95.32;;
43385;Laerm;28988;48.042;7.584;2023-07-29T02:57:57;84.26;-23.73;95.48;;
43385;Laerm;28988;48.042;7.584;2023-07-29T03:00:22;84.28;-57.68;95.01;;
43385;Laerm;28988;48.042;7.584;2023-07-29T03:02:47;84.28;-23.73;94.77;;
43385;Laerm;28988;48.042;7.584;2023-07-29T03:05:12;84.27;-57.68;95.09;;
43385;Laerm;28988;48.042;7.584;2023-07-29T03:07:38;84.27;-23.73;94.65;;
43385;Laerm;28988;48.042;7.584;2023-07-29T03:10:03;84.27;-20.54;95.05;;
43385;Laerm;28988;48.042;7.584;2023-07-29T03:12:28;84.26;-57.68;94.94;;
43385;Laerm;28988;48.042;7.584;2023-07-29T03:14:53;84.26;-28.29;95.27;;
43385;Laerm;28988;48.042;7.584;2023-07-29T03:17:19;84.26;-35.36;94.93;;
43385;Laerm;28988;48.042;7.584;2023-07-29T03:19:44;84.28;-20.54;95.16;;
43385;Laerm;28988;48.042;7.584;2023-07-29T03:22:09;84.28;-57.68;95.13;;
43385;Laerm;28988;48.042;7.584;2023-07-29T03:24:34;84.28;-33.10;94.81;;
43385;Laerm;28988;48.042;7.584;2023-07-29T03:26:59;84.30;-57.68;96.11;;
43385;Laerm;28988;48.042;7.584;2023-07-29T03:29:25;84.29;-23.73;94.83;;
43385;Laerm;28988;48.042;7.584;2023-07-29T03:31:50;84.29;-57.68;94.60;;
43385;Laerm;28988;48.042;7.584;2023-07-29T03:34:15;84.28;-20.54;95.13;;
43385;Laerm;28988;48.042;7.584;2023-07-29T03:36:40;84.27;-23.73;94.81;;
43385;Laerm;28988;48.042;7.584;2023-07-29T03:39:06;84.26;-33.10;94.89;;
43385;Laerm;28988;48.042;7.584;2023-07-29T03:41:32;84.27;-23.73;94.72;;
43385;Laerm;28988;48.042;7.584;2023-07-29T03:43:57;84.26;-23.73;94.81;;
43385;Laerm;28988;48.042;7.584;2023-07-29T03:46:22;84.25;-57.68;94.59;;
43385;Laerm;28988;48.042;7.584;2023-07-29T03:48:48;84.27;-57.68;94.91;;
43385;Laerm;28988;48.042;7.584;2023-07-29T03:51:13;84.27;-23.73;94.97;;
43385;Laerm;28988;48.042;7.584;2023-07-29T03:53:38;84.26;-57.68;94.20;;
43385;Laerm;28988;48.042;7.584;2023-07-29T03:56:03;84.27;-28.29;95.53;;
43385;Laerm;28988;48.042;7.584;2023-07-29T03:58:29;84.26;-35.14;94.38;;
43385;Laerm;28988;48.042;7.584;2023-07-29T04:00:54;84.27;-23.73;95.02;;
43385;Laerm;28988;48.042;7.584;2023-07-29T04:03:19;84.26;-23.73;95.16;;
43385;Laerm;28988;48.042;7.584;2023-07-29T04:05:44;84.25;-47.54;94.39;;
43385;Laerm;28988;48.042;7.584;2023-07-29T04:08:09;84.25;-57.68;95.37;;
43385;Laerm;28988;48.042;7.584;2023-07-29T04:10:35;84.26;-34.16;94.77;;
43385;Laerm;28988;48.042;7.584;2023-07-29T04:13:00;84.26;-57.68;95.21;;
43385;Laerm;28988;48.042;7.584;2023-07-29T04:15:25;84.25;-28.29;94.87;;
43385;Laerm;28988;48.042;7.584;2023-07-29T04:17:50;84.24;-23.73;94.06;;
43385;Laerm;28988;48.042;7.584;2023-07-29T04:20:16;84.23;-34.16;94.35;;
43385;Laerm;28988;48.042;7.584;2023-07-29T04:22:41;84.24;-35.51;94.69;;
43385;Laerm;28988;48.042;7.584;2023-07-29T04:25:06;84.26;-28.29;94.51;;
43385;Laerm;28988;48.042;7.584;2023-07-29T04:27:31;84.25;-57.68;95.01;;
43385;Laerm;28988;48.042;7.584;2023-07-29T04:29:57;84.23;-57.68;94.77;;
43385;Laerm;28988;48.042;7.584;2023-07-29T04:32:22;84.25;-38.42;95.47;;
43385;Laerm;28988;48.042;7.584;2023-07-29T04:34:47;84.24;-23.73;94.16;;
43385;Laerm;28988;48.042;7.584;2023-07-29T04:37:12;84.24;-33.10;94.43;;
43385;Laerm;28988;48.042;7.584;2023-07-29T04:39:37;84.24;-23.73;94.67;;
43385;Laerm;28988;48.042;7.584;2023-07-29T04:42:03;84.23;-28.29;94.01;;
43385;Laerm;28988;48.042;7.584;2023-07-29T04:44:28;84.22;-57.68;94.53;;
43385;Laerm;28988;48.042;7.584;2023-07-29T04:46:53;84.22;-23.73;94.30;;
43385;Laerm;28988;48.042;7.584;2023-07-29T04:49:18;84.23;-23.73;94.94;;
43385;Laerm;28988;48.042;7.584;2023-07-29T04:51:43;84.20;-23.73;93.87;;
43385;Laerm;28988;48.042;7.584;2023-07-29T04:54:09;84.22;-57.68;94.29;;
43385;Laerm;28988;48.042;7.584;2023-07-29T04:56:34;84.21;-28.29;93.91;;
43385;Laerm;28988;48.042;7.584;2023-07-29T04:58:59;84.22;-23.73;94.78;;
43385;Laerm;28988;48.042;7.584;2023-07-29T05:01:24;84.22;-34.16;94.54;;
43385;Laerm;28988;48.042;7.584;2023-07-29T05:03:50;84.21;-28.29;94.62;;
43385;Laerm;28988;48.042;7.584;2023-07-29T05:06:15;84.21;-57.68;94.42;;
43385;Laerm;28988;48.042;7.584;2023-07-29T05:08:40;84.21;-57.68;94.03;;
43385;Laerm;28988;48.042;7.584;2023-07-29T05:11:05;84.21;-23.73;94.35;;
43385;Laerm;28988;48.042;7.584;2023-07-29T05:13:31;84.22;-28.29;94.10;;
43385;Laerm;28988;48.042;7.584;2023-07-29T05:15:56;84.23;-28.29;93.84;;
43385;Laerm;28988;48.042;7.584;2023-07-29T05:18:21;84.24;-28.29;94.28;;
43385;Laerm;28988;48.042;7.584;2023-07-29T05:20:46;84.25;-28.29;95.16;;
43385;Laerm;28988;48.042;7.584;2023-07-29T05:23:12;84.25;-57.68;94.88;;
43385;Laerm;28988;48.042;7.584;2023-07-29T05:25:37;84.24;-57.68;94.79;;
43385;Laerm;28988;48.042;7.584;2023-07-29T05:28:02;84.27;-22.68;95.11;;
43385;Laerm;28988;48.042;7.584;2023-07-29T05:30:28;84.26;-28.29;94.55;;
43385;Laerm;28988;48.042;7.584;2023-07-29T05:32:56;84.28;-23.73;95.26;;
43385;Laerm;28988;48.042;7.584;2023-07-29T05:35:21;84.29;-27.98;94.83;;
43385;Laerm;28988;48.042;7.584;2023-07-29T05:37:46;84.26;-23.73;95.10;;
43385;Laerm;28988;48.042;7.584;2023-07-29T05:40:11;84.24;-57.68;94.69;;
43385;Laerm;28988;48.042;7.584;2023-07-29T05:42:37;84.27;-23.73;95.36;;
43385;Laerm;28988;48.042;7.584;2023-07-29T05:45:02;84.26;-30.57;94.60;;
43385;Laerm;28988;48.042;7.584;2023-07-29T05:47:27;84.24;-44.22;94.81;;
43385;Laerm;28988;48.042;7.584;2023-07-29T05:49:52;84.24;-23.73;94.49;;
43385;Laerm;28988;48.042;7.584;2023-07-29T05:52:18;84.27;-23.73;94.42;;
43385;Laerm;28988;48.042;7.584;2023-07-29T05:54:43;84.25;-23.73;94.42;;
43385;Laerm;28988;48.042;7.584;2023-07-29T05:57:09;84.25;-57.68;94.40;;
43385;Laerm;28988;48.042;7.584;2023-07-29T05:59:34;84.26;-57.68;95.21;;
43385;Laerm;28988;48.042;7.584;2023-07-29T06:01:59;84.23;-23.73;94.70;;
43385;Laerm;28988;48.042;7.584;2023-07-29T06:04:24;84.24;-23.73;94.55;;
43385;Laerm;28988;48.042;7.584;2023-07-29T06:06:50;84.27;-23.73;95.17;;
43385;Laerm;28988;48.042;7.584;2023-07-29T06:09:15;84.26;-57.68;95.38;;
43385;Laerm;28988;48.042;7.584;2023-07-29T06:11:40;84.26;-57.68;94.80;;
43385;Laerm;28988;48.042;7.584;2023-07-29T06:14:05;84.27;-31.17;94.97;;
43385;Laerm;28988;48.042;7.584;2023-07-29T06:16:30;84.26;-23.73;95.01;;
43385;Laerm;28988;48.042;7.584;2023-07-29T06:18:56;84.27;-34.16;95.06;;
43385;Laerm;28988;48.042;7.584;2023-07-29T06:21:21;84.27;-57.68;94.43;;
43385;Laerm;28988;48.042;7.584;2023-07-29T06:23:47;84.28;-33.10;94.95;;
43385;Laerm;28988;48.042;7.584;2023-07-29T06:26:12;84.26;-33.10;95.24;;
43385;Laerm;28988;48.042;7.584;2023-07-29T06:28:38;84.26;-57.68;95.10;;
43385;Laerm;28988;48.042;7.584;2023-07-29T06:31:03;84.24;-57.68;95.11;;
43385;Laerm;28988;48.042;7.584;2023-07-29T06:33:28;84.21;-57.68;94.57;;
43385;Laerm;28988;48.042;7.584;2023-07-29T06:35:53;84.18;-38.65;94.15;;
43385;Laerm;28988;48.042;7.584;2023-07-29T06:38:19;84.15;-33.10;93.96;;
43385;Laerm;28988;48.042;7.584;2023-07-29T06:40:47;84.16;-33.10;93.96;;
43385;Laerm;28988;48.042;7.584;2023-07-29T06:43:12;84.16;-57.68;93.65;;
43385;Laerm;28988;48.042;7.584;2023-07-29T06:45:37;84.16;-57.68;93.70;;
43385;Laerm;28988;48.042;7.584;2023-07-29T06:48:03;84.16;-57.68;93.13;;
43385;Laerm;28988;48.042;7.584;2023-07-29T06:50:28;84.16;-22.63;93.49;;
43385;Laerm;28988;48.042;7.584;2023-07-29T06:52:53;84.16;-30.89;93.86;;
43385;Laerm;28988;48.042;7.584;2023-07-29T06:55:18;84.16;-20.24;93.49;;
43385;Laerm;28988;48.042;7.584;2023-07-29T06:57:43;84.16;-31.14;93.30;;
43385;Laerm;28988;48.042;7.584;2023-07-29T07:00:09;84.17;-33.10;93.63;;
43385;Laerm;28988;48.042;7.584;2023-07-29T07:02:34;84.16;-57.68;93.66;;
43385;Laerm;28988;48.042;7.584;2023-07-29T07:04:59;84.16;-57.68;94.30;;
43385;Laerm;28988;48.042;7.584;2023-07-29T07:07:24;84.17;-20.54;93.66;;
43385;Laerm;28988;48.042;7.584;2023-07-29T07:09:50;84.17;-57.68;93.97;;
43385;Laerm;28988;48.042;7.584;2023-07-29T07:12:15;84.17;-33.10;93.85;;
43385;Laerm;28988;48.042;7.584;2023-07-29T07:14:40;84.18;-57.68;94.43;;
43385;Laerm;28988;48.042;7.584;2023-07-29T07:17:05;84.18;-28.29;94.36;;
43385;Laerm;28988;48.042;7.584;2023-07-29T07:19:31;84.20;-57.68;93.84;;
43385;Laerm;28988;48.042;7.584;2023-07-29T07:21:56;84.22;-23.73;94.17;;
43385;Laerm;28988;48.042;7.584;2023-07-29T07:24:21;84.22;-57.68;94.57;;
43385;Laerm;28988;48.042;7.584;2023-07-29T07:26:47;84.21;-34.16;94.22;;
43385;Laerm;28988;48.042;7.584;2023-07-29T07:29:12;84.21;-28.29;95.17;;
43385;Laerm;28988;48.042;7.584;2023-07-29T07:31:37;84.20;-57.68;93.76;;
43385;Laerm;28988;48.042;7.584;2023-07-29T07:34:02;84.22;-27.51;93.94;;
43385;Laerm;28988;48.042;7.584;2023-07-29T07:36:28;84.19;-57.68;94.23;;
43385;Laerm;28988;48.042;7.584;2023-07-29T07:38:53;84.19;-33.66;94.61;;
43385;Laerm;28988;48.042;7.584;2023-07-29T07:41:19;84.19;-57.68;93.98;;
43385;Laerm;28988;48.042;7.584;2023-07-29T07:43:44;84.18;-57.68;93.97;;
43385;Laerm;28988;48.042;7.584;2023-07-29T07:46:09;84.19;-28.29;94.00;;
43385;Laerm;28988;48.042;7.584;2023-07-29T07:48:34;84.19;-28.29;93.94;;
43385;Laerm;28988;48.042;7.584;2023-07-29T07:50:59;84.19;-23.73;93.80;;
43385;Laerm;28988;48.042;7.584;2023-07-29T07:53:27;84.17;-57.68;93.94;;
43385;Laerm;28988;48.042;7.584;2023-07-29T07:55:52;84.19;-57.68;93.66;;
43385;Laerm;28988;48.042;7.584;2023-07-29T07:58:17;84.17;-33.10;93.97;;
43385;Laerm;28988;48.042;7.584;2023-07-29T08:00:43;84.18;-33.10;93.99;;
43385;Laerm;28988;48.042;7.584;2023-07-29T08:03:08;84.16;-33.10;94.00;;
43385;Laerm;28988;48.042;7.584;2023-07-29T08:05:33;84.17;-38.65;93.95;;
43385;Laerm;28988;48.042;7.584;2023-07-29T08:07:58;84.17;-34.16;94.59;;
43385;Laerm;28988;48.042;7.584;2023-07-29T08:10:24;84.17;-33.10;93.70;;
43385;Laerm;28988;48.042;7.584;2023-07-29T08:12:49;84.17;-57.68;93.70;;
43385;Laerm;28988;48.042;7.584;2023-07-29T08:15:14;84.16;-48.50;93.45;;
43385;Laerm;28988;48.042;7.584;2023-07-29T08:17:39;84.16;-33.10;93.36;;
43385;Laerm;28988;48.042;7.584;2023-07-29T08:20:04;84.15;-28.29;93.17;;
43385;Laerm;28988;48.042;7.584;2023-07-29T08:22:30;84.16;-57.68;93.48;;
43385;Laerm;28988;48.042;7.584;2023-07-29T08:24:55;84.16;-57.68;93.49;;
43385;Laerm;28988;48.042;7.584;2023-07-29T08:27:20;84.16;-33.10;93.66;;
43385;Laerm;28988;48.042;7.584;2023-07-29T08:29:45;84.15;-33.10;93.18;;
43385;Laerm;28988;48.042;7.584;2023-07-29T08:32:11;84.16;-33.10;93.48;;
43385;Laerm;28988;48.042;7.584;2023-07-29T08:34:37;84.17;-57.68;94.29;;
43385;Laerm;28988;48.042;7.584;2023-07-29T08:37:02;84.16;-33.10;93.68;;
43385;Laerm;28988;48.042;7.584;2023-07-29T08:39:27;84.16;-33.10;93.22;;
43385;Laerm;28988;48.042;7.584;2023-07-29T08:42:03;84.15;-57.68;93.22;;
43385;Laerm;28988;48.042;7.584;2023-07-29T08:44:35;84.14;-33.10;93.40;;
43385;Laerm;28988;48.042;7.584;2023-07-29T08:47:01;84.15;-57.68;93.47;;
43385;Laerm;28988;48.042;7.584;2023-07-29T08:49:26;84.15;-57.68;93.38;;
43385;Laerm;28988;48.042;7.584;2023-07-29T08:51:52;84.14;-33.96;93.13;;
43385;Laerm;28988;48.042;7.584;2023-07-29T08:54:18;84.14;-33.10;92.88;;
43385;Laerm;28988;48.042;7.584;2023-07-29T08:56:43;84.15;-57.68;93.31;;
43385;Laerm;28988;48.042;7.584;2023-07-29T08:59:09;84.15;-22.63;93.93;;
43385;Laerm;28988;48.042;7.584;2023-07-29T09:01:35;84.15;-57.68;93.51;;
43385;Laerm;28988;48.042;7.584;2023-07-29T09:04:00;84.15;-57.68;93.35;;
43385;Laerm;28988;48.042;7.584;2023-07-29T09:06:26;84.14;-57.68;92.93;;
43385;Laerm;28988;48.042;7.584;2023-07-29T09:08:53;84.15;-28.29;93.37;;
43385;Laerm;28988;48.042;7.584;2023-07-29T09:11:19;84.14;-57.68;93.41;;
43385;Laerm;28988;48.042;7.584;2023-07-29T09:13:45;84.14;-48.31;93.03;;
43385;Laerm;28988;48.042;7.584;2023-07-29T09:16:10;84.14;-57.68;93.11;;
43385;Laerm;28988;48.042;7.584;2023-07-29T09:18:36;84.15;-33.10;93.15;;
43385;Laerm;28988;48.042;7.584;2023-07-29T09:21:01;84.14;-33.10;93.53;;
43385;Laerm;28988;48.042;7.584;2023-07-29T09:23:26;84.14;-34.16;93.13;;
43385;Laerm;28988;48.042;7.584;2023-07-29T09:26:00;84.14;-33.10;93.13;;
43385;Laerm;28988;48.042;7.584;2023-07-29T09:28:25;84.14;-57.68;93.26;;
43385;Laerm;28988;48.042;7.584;2023-07-29T09:30:50;84.13;-23.58;93.16;;
43385;Laerm;28988;48.042;7.584;2023-07-29T09:33:17;84.14;-57.68;93.81;;
43385;Laerm;28988;48.042;7.584;2023-07-29T09:35:42;84.14;-57.68;93.08;;
43385;Laerm;28988;48.042;7.584;2023-07-29T09:38:09;84.14;-34.98;93.10;;
43385;Laerm;28988;48.042;7.584;2023-07-29T09:40:39;84.14;-23.73;93.12;;
43385;Laerm;28988;48.042;7.584;2023-07-29T09:43:05;84.14;-57.68;93.37;;
43385;Laerm;28988;48.042;7.584;2023-07-29T09:45:32;84.15;-57.68;93.34;;
43385;Laerm;28988;48.042;7.584;2023-07-29T09:47:58;84.14;-57.68;93.01;;
43385;Laerm;28988;48.042;7.584;2023-07-29T09:50:24;84.14;-29.79;93.05;;
43385;Laerm;28988;48.042;7.584;2023-07-29T09:52:50;84.14;-33.10;93.22;;
43385;Laerm;28988;48.042;7.584;2023-07-29T09:55:17;84.14;-33.10;93.27;;
43385;Laerm;28988;48.042;7.584;2023-07-29T09:57:42;84.14;-57.68;93.31;;
43385;Laerm;28988;48.042;7.584;2023-07-29T10:00:10;84.14;-33.10;93.08;;
43385;Laerm;28988;48.042;7.584;2023-07-29T10:02:36;84.15;-57.68;93.49;;
43385;Laerm;28988;48.042;7.584;2023-07-29T10:05:02;84.14;-28.29;93.18;;
43385;Laerm;28988;48.042;7.584;2023-07-29T10:07:28;84.15;-57.68;93.66;;
43385;Laerm;28988;48.042;7.584;2023-07-29T10:09:54;84.15;-33.10;93.03;;
43385;Laerm;28988;48.042;7.584;2023-07-29T10:12:20;84.15;-23.73;93.72;;
43385;Laerm;28988;48.042;7.584;2023-07-29T10:14:46;84.15;-57.68;93.80;;
43385;Laerm;28988;48.042;7.584;2023-07-29T10:17:12;84.15;-23.73;93.42;;
43385;Laerm;28988;48.042;7.584;2023-07-29T10:19:38;84.14;-57.68;93.28;;
43385;Laerm;28988;48.042;7.584;2023-07-29T10:22:04;84.15;-57.68;92.99;;
43385;Laerm;28988;48.042;7.584;2023-07-29T10:24:30;84.15;-23.73;93.31;;
43385;Laerm;28988;48.042;7.584;2023-07-29T10:26:57;84.14;-57.68;93.23;;
43385;Laerm;28988;48.042;7.584;2023-07-29T10:29:23;84.14;-33.10;92.93;;
43385;Laerm;28988;48.042;7.584;2023-07-29T10:31:48;84.14;-33.10;93.22;;
43385;Laerm;28988;48.042;7.584;2023-07-29T10:34:17;84.14;-29.05;93.40;;
43385;Laerm;28988;48.042;7.584;2023-07-29T10:36:43;84.13;-57.68;93.20;;
43385;Laerm;28988;48.042;7.584;2023-07-29T10:39:08;84.15;-57.68;93.51;;
43385;Laerm;28988;48.042;7.584;2023-07-29T10:47:10;84.13;-57.68;93.47;;
43385;Laerm;28988;48.042;7.584;2023-07-29T10:49:35;84.15;-57.68;93.22;;
43385;Laerm;28988;48.042;7.584;2023-07-29T10:52:00;84.15;-57.68;93.39;;
43385;Laerm;28988;48.042;7.584;2023-07-29T10:54:26;84.14;-28.29;93.02;;
43385;Laerm;28988;48.042;7.584;2023-07-29T10:56:52;84.13;-23.73;93.22;;
43385;Laerm;28988;48.042;7.584;2023-07-29T11:01:52;84.13;-33.10;93.18;;
43385;Laerm;28988;48.042;7.584;2023-07-29T11:14:57;84.14;-40.41;93.22;;
43385;Laerm;28988;48.042;7.584;2023-07-29T11:17:22;84.15;-40.41;93.56;;
43385;Laerm;28988;48.042;7.584;2023-07-29T11:19:48;84.14;-57.68;93.57;;
43385;Laerm;28988;48.042;7.584;2023-07-29T11:22:14;84.14;-22.85;93.37;;
43385;Laerm;28988;48.042;7.584;2023-07-29T11:24:43;84.15;-57.68;93.30;;
43385;Laerm;28988;48.042;7.584;2023-07-29T11:27:11;84.14;-34.16;93.57;;
43385;Laerm;28988;48.042;7.584;2023-07-29T11:29:37;84.15;-33.66;93.56;;
43385;Laerm;28988;48.042;7.584;2023-07-29T11:32:02;84.14;-27.11;93.76;;
43385;Laerm;28988;48.042;7.584;2023-07-29T11:34:31;84.16;-31.81;92.99;;
43385;Laerm;28988;48.042;7.584;2023-07-29T11:36:57;84.23;-25.26;93.28;;
43385;Laerm;28988;48.042;7.584;2023-07-29T11:39:22;84.34;-38.39;93.31;;
43385;Laerm;28988;48.042;7.584;2023-07-29T11:41:47;84.46;-55.81;93.52;;
43385;Laerm;28988;48.042;7.584;2023-07-29T11:44:16;84.57;-42.47;93.77;;
43385;Laerm;28988;48.042;7.584;2023-07-29T11:46:41;84.60;-38.65;93.82;;
43385;Laerm;28988;48.042;7.584;2023-07-29T11:49:07;84.57;-28.78;94.06;;
43385;Laerm;28988;48.042;7.584;2023-07-29T11:51:32;84.45;-41.37;93.49;;
43385;Laerm;28988;48.042;7.584;2023-07-29T11:53:58;84.46;-25.68;93.51;;
43385;Laerm;28988;48.042;7.584;2023-07-29T11:56:23;84.43;-34.28;93.70;;
43385;Laerm;28988;48.042;7.584;2023-07-29T11:58:49;84.49;-33.10;93.95;;
43385;Laerm;28988;48.042;7.584;2023-07-29T12:01:14;84.69;-34.58;93.89;;
43385;Laerm;28988;48.042;7.584;2023-07-29T12:03:39;85.00;-24.96;94.26;;
43385;Laerm;28988;48.042;7.584;2023-07-29T12:06:04;85.46;-31.00;94.57;;
43385;Laerm;28988;48.042;7.584;2023-07-29T12:08:30;86.41;-23.09;95.03;;
43385;Laerm;28988;48.042;7.584;2023-07-29T12:10:55;88.49;-23.48;95.19;;
43385;Laerm;28988;48.042;7.584;2023-07-29T12:13:23;89.12;-38.74;95.65;;
43385;Laerm;28988;48.042;7.584;2023-07-29T12:15:48;87.66;-34.97;95.49;;
43385;Laerm;28988;48.042;7.584;2023-07-29T12:18:14;85.97;-22.86;94.72;;
43385;Laerm;28988;48.042;7.584;2023-07-29T12:20:39;85.06;-28.42;94.21;;
43385;Laerm;28988;48.042;7.584;2023-07-29T12:23:05;84.67;-49.50;94.37;;
43385;Laerm;28988;48.042;7.584;2023-07-29T12:25:32;84.45;-55.50;93.39;;
43385;Laerm;28988;48.042;7.584;2023-07-29T12:28:02;84.35;-31.54;93.70;;
43385;Laerm;28988;48.042;7.584;2023-07-29T12:30:27;84.30;-57.68;93.26;;
43385;Laerm;28988;48.042;7.584;2023-07-29T12:32:52;84.26;-25.70;93.55;;
43385;Laerm;28988;48.042;7.584;2023-07-29T12:35:18;84.24;-47.13;93.16;;
43385;Laerm;28988;48.042;7.584;2023-07-29T12:37:43;84.25;-40.30;93.31;;
43385;Laerm;28988;48.042;7.584;2023-07-29T12:40:20;84.25;-47.13;93.68;;
43385;Laerm;28988;48.042;7.584;2023-07-29T12:42:45;84.26;-36.70;93.99;;
43385;Laerm;28988;48.042;7.584;2023-07-29T12:45:10;84.29;-52.88;93.59;;
43385;Laerm;28988;48.042;7.584;2023-07-29T12:47:36;84.29;-52.22;93.54;;
43385;Laerm;28988;48.042;7.584;2023-07-29T12:50:01;84.34;-42.52;93.45;;
43385;Laerm;28988;48.042;7.584;2023-07-29T12:52:26;84.35;-36.01;93.66;;
43385;Laerm;28988;48.042;7.584;2023-07-29T12:54:51;84.34;-36.83;93.68;;
43385;Laerm;28988;48.042;7.584;2023-07-29T12:57:16;84.38;-28.31;93.42;;
43385;Laerm;28988;48.042;7.584;2023-07-29T12:59:41;84.57;-23.24;94.03;;
43385;Laerm;28988;48.042;7.584;2023-07-29T13:02:07;85.15;-18.72;94.02;;
43385;Laerm;28988;48.042;7.584;2023-07-29T13:04:32;87.45;-32.40;95.20;;
43385;Laerm;28988;48.042;7.584;2023-07-29T13:06:57;93.29;-40.56;99.19;;
43385;Laerm;28988;48.042;7.584;2023-07-29T13:09:24;93.34;-25.25;99.40;;
43385;Laerm;28988;48.042;7.584;2023-07-29T13:11:49;88.97;-65.55;98.14;;
43385;Laerm;28988;48.042;7.584;2023-07-29T13:14:14;86.01;-39.32;97.01;;
43385;Laerm;28988;48.042;7.584;2023-07-29T13:16:40;83.58;-51.45;94.86;;
43385;Laerm;28988;48.042;7.584;2023-07-29T13:19:05;82.17;-48.97;93.09;;
43385;Laerm;28988;48.042;7.584;2023-07-29T13:21:30;82.01;-43.90;93.48;;
43385;Laerm;28988;48.042;7.584;2023-07-29T13:23:55;83.62;-52.38;94.68;;
43385;Laerm;28988;48.042;7.584;2023-07-29T13:26:21;87.80;-52.01;97.60;;
43385;Laerm;28988;48.042;7.584;2023-07-29T13:28:46;92.74;-32.67;99.50;;
43385;Laerm;28988;48.042;7.584;2023-07-29T13:31:11;95.11;-12.48;99.43;;
43385;Laerm;28988;48.042;7.584;2023-07-29T13:33:37;93.42;-19.83;98.96;;
43385;Laerm;28988;48.042;7.584;2023-07-29T13:36:03;90.37;-15.96;97.10;;
43385;Laerm;28988;48.042;7.584;2023-07-29T13:38:28;86.67;-24.12;94.75;;
43385;Laerm;28988;48.042;7.584;2023-07-29T13:40:54;85.05;-38.65;94.29;;
43385;Laerm;28988;48.042;7.584;2023-07-29T13:43:19;84.56;-46.30;93.68;;
43385;Laerm;28988;48.042;7.584;2023-07-29T13:45:44;84.33;-36.59;93.46;;
43385;Laerm;28988;48.042;7.584;2023-07-29T13:48:09;84.23;-25.69;93.31;;
43385;Laerm;28988;48.042;7.584;2023-07-29T13:50:34;84.18;-71.53;93.58;;